Time,TemperatureF,DewpointF,PressureIn,WindDirection,WindDirectionDegrees,WindSpeedMPH,WindSpeedGustMPH,Humidity,HourlyPrecipIn,Conditions,Clouds,dailyrainin,SoftwareType,DateUTC
2013-02-06 00:00:00,28.9,24.4,29.71,SE,135,6.2,7.3,83,0.00,OVC,,0.00,WeatherDisplay:10.37,2013-02-06 07:00:00,
2013-02-06 00:05:00,29.1,24.6,29.71,SSE,158,9.4,11.5,83,0.00,OVC,,0.00,WeatherDisplay:10.37,2013-02-06 07:05:00,
2013-02-06 00:10:00,29.1,24.6,29.71,ESE,112,7.2,9.2,83,0.00,OVC,,0.00,WeatherDisplay:10.37,2013-02-06 07:10:00,
2013-02-06 00:15:00,29.1,24.6,29.71,SE,135,6.1,6.9,83,0.00,OVC,,0.00,WeatherDisplay:10.37,2013-02-06 07:15:00,
2013-02-06 00:20:00,29.5,25.0,29.71,South,180,7.1,11.5,83,0.00,OVC,,0.00,WeatherDisplay:10.37,2013-02-06 07:20:00,
2013-02-06 00:25:00,29.8,25.0,29.71,SSW,202,7.9,10.4,82,0.00,OVC,,0.00,WeatherDisplay:10.37,2013-02-06 07:25:00,
2013-02-06 00:30:00,30.0,25.2,29.70,SE,135,3.8,6.9,82,0.00,OVC,,0.00,WeatherDisplay:10.37,2013-02-06 07:30:00,
2013-02-06 00:35:00,29.8,25.0,29.70,SSE,158,4.3,6.3,82,0.00,OVC,,0.00,WeatherDisplay:10.37,2013-02-06 07:35:00,
2013-02-06 00:40:00,29.8,25.0,29.70,South,180,3.2,9.2,82,0.00,OVC,,0.00,WeatherDisplay:10.37,2013-02-06 07:40:00,
2013-02-06 00:45:00,29.8,25.0,29.70,ESE,112,2.8,3.5,82,0.00,OVC,,0.00,WeatherDisplay:10.37,2013-02-06 07:45:00,
2013-02-06 00:50:00,29.8,25.3,29.70,ESE,112,3.0,5.8,83,0.00,OVC,,0.00,WeatherDisplay:10.37,2013-02-06 07:50:00,
2013-02-06 00:55:00,29.7,25.2,29.70,NE,45,2.4,2.4,83,0.00,OVC,,0.00,WeatherDisplay:10.37,2013-02-06 07:55:00,
2013-02-06 01:00:00,29.3,24.8,29.70,ESE,112,2.4,3.5,83,0.00,OVC,,0.00,WeatherDisplay:10.37,2013-02-06 08:00:00,
2013-02-06 01:05:00,29.3,25.1,29.69,SSE,158,3.6,5.8,84,0.00,OVC,,0.00,WeatherDisplay:10.37,2013-02-06 08:05:00,
2013-02-06 01:10:00,29.3,25.1,29.69,SSW,202,4.6,5.3,84,0.00,OVC,,0.00,WeatherDisplay:10.37,2013-02-06 08:10:00,
2013-02-06 01:15:00,29.5,25.3,29.69,SE,135,3.3,5.8,84,0.00,OVC,,0.00,WeatherDisplay:10.37,2013-02-06 08:15:00,
2013-02-06 01:20:00,29.3,25.1,29.69,NE,45,2.5,3.5,84,0.00,OVC,,0.00,WeatherDisplay:10.37,2013-02-06 08:20:00,
2013-02-06 01:25:00,29.1,25.4,29.69,NE,45,2.9,3.5,86,0.00,OVC,,0.00,WeatherDisplay:10.37,2013-02-06 08:25:00,
2013-02-06 01:31:00,28.8,24.9,29.68,South,180,2.8,3.5,85,0.00,OVC,,0.00,WeatherDisplay:10.37,2013-02-06 08:31:00,
2013-02-06 01:36:00,28.9,25.0,29.68,SSW,202,5.0,5.8,85,0.00,OVC,,0.00,WeatherDisplay:10.37,2013-02-06 08:36:00,
2013-02-06 01:41:00,28.9,25.0,29.68,SSW,202,3.9,5.8,85,0.00,OVC,,0.00,WeatherDisplay:10.37,2013-02-06 08:41:00,
2013-02-06 01:46:00,28.9,25.0,29.68,SSW,202,3.0,5.8,85,0.00,OVC,,0.00,WeatherDisplay:10.37,2013-02-06 08:46:00,
2013-02-06 01:51:00,28.9,25.0,29.67,SSE,158,2.8,3.5,85,0.00,OVC,,0.00,WeatherDisplay:10.37,2013-02-06 08:51:00,
2013-02-06 01:56:00,28.8,24.9,29.67,South,180,2.6,3.2,85,0.00,OVC,,0.00,WeatherDisplay:10.37,2013-02-06 08:56:00,
2013-02-06 02:01:00,28.6,24.7,29.67,SE,135,2.8,3.5,85,0.00,OVC,,0.00,WeatherDisplay:10.37,2013-02-06 09:01:00,
2013-02-06 02:06:00,28.4,24.5,29.67,West,270,0.0,0.0,85,0.00,SCT,,0.00,WeatherDisplay:10.37,2013-02-06 09:06:00,
2013-02-06 02:11:00,28.0,24.4,29.67,South,180,0.0,1.7,86,0.00,SCT,,0.00,WeatherDisplay:10.37,2013-02-06 09:11:00,
2013-02-06 02:16:00,27.9,24.3,29.67,South,180,1.0,1.1,86,0.00,SCT,,0.00,WeatherDisplay:10.37,2013-02-06 09:16:00,
2013-02-06 02:21:00,27.9,24.3,29.67,NNE,22,0.0,0.0,86,0.00,SCT,,0.00,WeatherDisplay:10.37,2013-02-06 09:21:00,
2013-02-06 02:26:00,27.3,24.2,29.67,ESE,112,0.9,1.1,88,0.00,SCT,,0.00,WeatherDisplay:10.37,2013-02-06 09:26:00,
2013-02-06 02:31:00,27.1,23.7,29.67,SSE,158,1.6,2.2,87,0.00,SCT,,0.00,WeatherDisplay:10.37,2013-02-06 09:31:00,
2013-02-06 02:36:00,27.1,24.0,29.67,ESE,112,1.3,2.3,88,0.00,SCT,,0.00,WeatherDisplay:10.37,2013-02-06 09:36:00,
2013-02-06 02:41:00,27.3,24.2,29.66,SSE,158,0.9,1.1,88,0.00,SCT,,0.00,WeatherDisplay:10.37,2013-02-06 09:41:00,
2013-02-06 02:46:00,27.1,24.0,29.66,SE,135,0.0,0.0,88,0.00,SCT,,0.00,WeatherDisplay:10.37,2013-02-06 09:46:00,
2013-02-06 02:51:00,26.8,23.7,29.67,ESE,112,1.7,2.2,88,0.00,SCT,,0.00,WeatherDisplay:10.37,2013-02-06 09:51:00,
2013-02-06 02:56:00,26.4,23.3,29.67,ESE,112,1.0,1.7,88,0.00,SCT,,0.00,WeatherDisplay:10.37,2013-02-06 09:56:00,
2013-02-06 03:01:00,26.2,23.1,29.67,ENE,68,0.0,0.0,88,0.00,SCT,,0.00,WeatherDisplay:10.37,2013-02-06 10:01:00,
2013-02-06 03:06:00,26.1,23.3,29.66,WSW,248,0.0,0.0,89,0.00,CLR,,0.00,WeatherDisplay:10.37,2013-02-06 10:06:00,
2013-02-06 03:11:00,26.1,23.6,29.66,SSW,202,0.3,1.1,90,0.00,CLR,,0.00,WeatherDisplay:10.37,2013-02-06 10:11:00,
2013-02-06 03:16:00,25.9,23.4,29.66,South,180,1.1,2.2,90,0.00,CLR,,0.00,WeatherDisplay:10.37,2013-02-06 10:16:00,
2013-02-06 03:21:00,26.1,23.6,29.66,SE,135,1.0,1.1,90,0.00,CLR,,0.00,WeatherDisplay:10.37,2013-02-06 10:21:00,
2013-02-06 03:26:00,25.7,23.2,29.66,ESE,112,1.3,1.3,90,0.00,CLR,,0.00,WeatherDisplay:10.37,2013-02-06 10:26:00,
2013-02-06 03:31:00,25.5,23.0,29.66,East,90,0.0,1.1,90,0.00,CLR,,0.00,WeatherDisplay:10.37,2013-02-06 10:31:00,
2013-02-06 03:36:00,25.3,22.8,29.66,SW,225,0.0,0.0,90,0.00,CLR,,0.00,WeatherDisplay:10.37,2013-02-06 10:36:00,
2013-02-06 03:41:00,25.2,22.7,29.65,WNW,292,0.0,0.0,90,0.00,CLR,,0.00,WeatherDisplay:10.37,2013-02-06 10:41:00,
2013-02-06 03:46:00,25.2,22.9,29.65,WNW,292,0.0,0.0,91,0.00,CLR,,0.00,WeatherDisplay:10.37,2013-02-06 10:46:00,
2013-02-06 03:51:00,24.8,22.5,29.65,East,90,0.0,0.0,91,0.00,CLR,,0.00,WeatherDisplay:10.37,2013-02-06 10:51:00,
2013-02-06 03:56:00,24.6,22.3,29.65,East,90,0.0,0.0,91,0.00,CLR,,0.00,WeatherDisplay:10.37,2013-02-06 10:56:00,
2013-02-06 04:01:00,24.4,22.2,29.65,SSE,158,0.0,0.0,91,0.00,BKN,,0.00,WeatherDisplay:10.37,2013-02-06 11:01:00,
2013-02-06 04:06:00,24.4,22.4,29.66,SSE,158,0.2,1.1,92,0.00,BKN,,0.00,WeatherDisplay:10.37,2013-02-06 11:06:00,
2013-02-06 04:11:00,24.1,21.9,29.66,WSW,248,0.5,1.7,91,0.00,BKN,,0.00,WeatherDisplay:10.37,2013-02-06 11:11:00,
2013-02-06 04:16:00,24.1,22.1,29.65,SSW,202,0.0,0.0,92,0.00,BKN,,0.00,WeatherDisplay:10.37,2013-02-06 11:16:00,
2013-02-06 04:21:00,23.7,21.5,29.65,SW,225,0.7,1.1,91,0.00,BKN,,0.00,WeatherDisplay:10.37,2013-02-06 11:21:00,
2013-02-06 04:26:00,23.5,21.3,29.65,SSE,158,0.0,0.0,91,0.00,BKN,,0.00,WeatherDisplay:10.37,2013-02-06 11:26:00,
2013-02-06 04:31:00,23.4,21.2,29.65,West,270,0.0,0.0,91,0.00,BKN,,0.00,WeatherDisplay:10.37,2013-02-06 11:31:00,
2013-02-06 04:36:00,23.2,21.0,29.65,SSW,202,0.0,0.0,91,0.00,BKN,,0.00,WeatherDisplay:10.37,2013-02-06 11:36:00,
2013-02-06 04:41:00,23.0,21.0,29.65,WSW,248,1.7,1.7,92,0.00,BKN,,0.00,WeatherDisplay:10.37,2013-02-06 11:41:00,
2013-02-06 04:46:00,23.0,21.3,29.65,NE,45,1.3,1.3,93,0.00,BKN,,0.00,WeatherDisplay:10.37,2013-02-06 11:46:00,
2013-02-06 04:51:00,23.0,21.3,29.66,SE,135,0.0,0.0,93,0.00,BKN,,0.00,WeatherDisplay:10.37,2013-02-06 11:51:00,
2013-02-06 04:56:00,22.8,21.1,29.66,NNE,22,0.0,0.0,93,0.00,BKN,,0.00,WeatherDisplay:10.37,2013-02-06 11:56:00,
2013-02-06 05:01:00,22.6,20.9,29.66,NNE,22,0.0,0.0,93,0.00,BKN,,0.00,WeatherDisplay:10.37,2013-02-06 12:01:00,
2013-02-06 05:06:00,22.5,20.8,29.65,NNE,22,0.0,0.0,93,0.00,BKN,,0.00,WeatherDisplay:10.37,2013-02-06 12:06:00,
2013-02-06 05:11:00,22.5,21.0,29.65,NE,45,0.1,1.1,94,0.00,BKN,,0.00,WeatherDisplay:10.37,2013-02-06 12:11:00,
2013-02-06 05:16:00,22.8,21.3,29.65,NE,45,1.4,1.4,94,0.00,BKN,,0.00,WeatherDisplay:10.37,2013-02-06 12:16:00,
2013-02-06 05:21:00,22.5,21.0,29.65,ENE,68,1.8,2.3,94,0.00,CLR,,0.00,WeatherDisplay:10.37,2013-02-06 12:21:00,
2013-02-06 05:26:00,22.3,20.8,29.65,North,360,0.0,0.0,94,0.00,CLR,,0.00,WeatherDisplay:10.37,2013-02-06 12:26:00,
2013-02-06 05:31:00,22.5,21.0,29.65,WNW,292,2.7,3.5,94,0.00,CLR,,0.00,WeatherDisplay:10.37,2013-02-06 12:31:00,
2013-02-06 05:36:00,22.6,21.1,29.65,WSW,248,1.2,1.7,94,0.00,CLR,,0.00,WeatherDisplay:10.37,2013-02-06 12:36:00,
2013-02-06 05:41:00,23.0,21.8,29.65,SSE,158,0.0,0.0,95,0.00,CLR,,0.00,WeatherDisplay:10.37,2013-02-06 12:41:00,
2013-02-06 05:46:00,23.0,21.8,29.65,WSW,248,0.0,1.1,95,0.00,CLR,,0.00,WeatherDisplay:10.37,2013-02-06 12:46:00,
2013-02-06 05:51:00,23.9,22.9,29.66,NW,315,1.8,2.3,96,0.00,CLR,,0.00,WeatherDisplay:10.37,2013-02-06 12:51:00,
2013-02-06 05:56:00,24.6,23.6,29.66,NW,315,1.7,1.7,96,0.00,CLR,,0.00,WeatherDisplay:10.37,2013-02-06 12:56:00,
2013-02-06 06:01:00,25.2,24.2,29.66,West,270,1.5,2.3,96,0.00,CLR,,0.00,WeatherDisplay:10.37,2013-02-06 13:01:00,
2013-02-06 06:06:00,25.2,24.2,29.66,WSW,248,1.7,2.3,96,0.00,CLR,,0.00,WeatherDisplay:10.37,2013-02-06 13:06:00,
2013-02-06 06:11:00,25.2,24.2,29.66,SW,225,1.8,2.3,96,0.00,CLR,,0.00,WeatherDisplay:10.37,2013-02-06 13:11:00,
2013-02-06 06:16:00,25.2,24.0,29.66,SSW,202,2.3,2.7,95,0.00,CLR,,0.00,WeatherDisplay:10.37,2013-02-06 13:16:00,
2013-02-06 06:21:00,25.2,24.0,29.66,NW,315,1.4,1.4,95,0.00,CLR,,0.00,WeatherDisplay:10.37,2013-02-06 13:21:00,
2013-02-06 06:26:00,25.2,24.0,29.66,WSW,248,1.0,1.1,95,0.00,CLR,,0.00,WeatherDisplay:10.37,2013-02-06 13:26:00,
2013-02-06 06:31:00,26.1,24.4,29.66,South,180,2.2,4.2,93,0.00,CLR,,0.00,WeatherDisplay:10.37,2013-02-06 13:31:00,
2013-02-06 06:36:00,25.5,23.5,29.66,West,270,3.2,4.6,92,0.00,CLR,,0.00,WeatherDisplay:10.37,2013-02-06 13:36:00,
2013-02-06 06:41:00,25.9,24.2,29.67,West,270,2.7,2.7,93,0.00,CLR,,0.00,WeatherDisplay:10.37,2013-02-06 13:41:00,
2013-02-06 06:46:00,26.8,24.5,29.67,West,270,2.7,2.7,91,0.00,CLR,,0.00,WeatherDisplay:10.37,2013-02-06 13:46:00,
2013-02-06 06:51:00,27.7,24.3,29.67,SW,225,3.7,4.6,87,0.00,CLR,,0.00,WeatherDisplay:10.37,2013-02-06 13:51:00,
2013-02-06 06:56:00,28.0,24.4,29.67,WSW,248,4.7,5.3,86,0.00,CLR,,0.00,WeatherDisplay:10.37,2013-02-06 13:56:00,
2013-02-06 07:01:00,28.4,24.5,29.67,SW,225,4.8,5.8,85,0.00,CLR,,0.00,WeatherDisplay:10.37,2013-02-06 14:01:00,
2013-02-06 07:06:00,28.6,24.4,29.67,SW,225,4.6,5.8,84,0.00,CLR,,0.00,WeatherDisplay:10.37,2013-02-06 14:06:00,
2013-02-06 07:11:00,28.6,24.9,29.67,WSW,248,2.8,3.5,86,0.00,CLR,,0.00,WeatherDisplay:10.37,2013-02-06 14:11:00,
2013-02-06 07:16:00,28.4,24.7,29.67,WNW,292,1.2,2.3,86,0.00,CLR,,0.00,WeatherDisplay:10.37,2013-02-06 14:16:00,
2013-02-06 07:21:00,28.8,24.3,29.67,West,270,3.6,5.8,83,0.00,CLR,,0.00,WeatherDisplay:10.37,2013-02-06 14:21:00,
2013-02-06 07:26:00,29.1,24.9,29.68,WSW,248,5.4,7.3,84,0.00,CLR,,0.00,WeatherDisplay:10.37,2013-02-06 14:26:00,
2013-02-06 07:31:00,29.8,25.0,29.68,WSW,248,5.6,6.9,82,0.00,CLR,,0.00,WeatherDisplay:10.37,2013-02-06 14:31:00,
2013-02-06 07:36:00,30.4,25.3,29.68,SW,225,4.3,5.8,81,0.00,CLR,,0.00,WeatherDisplay:10.37,2013-02-06 14:36:00,
2013-02-06 07:41:00,30.7,25.3,29.68,SW,225,6.5,6.9,80,0.00,CLR,,0.00,WeatherDisplay:10.37,2013-02-06 14:41:00,
2013-02-06 07:46:00,30.7,25.3,29.68,SW,225,6.8,6.9,80,0.00,CLR,,0.00,WeatherDisplay:10.37,2013-02-06 14:46:00,
2013-02-06 07:51:00,30.9,25.5,29.69,SW,225,4.7,5.8,80,0.00,CLR,,0.00,WeatherDisplay:10.37,2013-02-06 14:51:00,
2013-02-06 07:56:00,30.6,25.2,29.69,SW,225,5.9,5.9,80,0.00,CLR,,0.00,WeatherDisplay:10.37,2013-02-06 14:56:00,
2013-02-06 08:01:00,30.4,25.0,29.69,WSW,248,6.9,10.4,80,0.00,CLR,,0.00,WeatherDisplay:10.37,2013-02-06 15:01:00,
2013-02-06 08:06:00,30.0,24.9,29.69,WSW,248,3.2,3.5,81,0.00,CLR,,0.00,WeatherDisplay:10.37,2013-02-06 15:06:00,
2013-02-06 08:11:00,29.8,24.7,29.69,SW,225,4.1,4.6,81,0.00,CLR,,0.00,WeatherDisplay:10.37,2013-02-06 15:11:00,
2013-02-06 08:16:00,29.8,24.7,29.70,WSW,248,5.8,5.8,81,0.00,CLR,,0.00,WeatherDisplay:10.37,2013-02-06 15:16:00,
2013-02-06 08:21:00,29.8,24.7,29.70,SW,225,6.5,6.9,81,0.00,CLR,,0.00,WeatherDisplay:10.37,2013-02-06 15:21:00,
2013-02-06 08:26:00,30.4,25.3,29.70,WSW,248,5.3,5.8,81,0.00,CLR,,0.00,WeatherDisplay:10.37,2013-02-06 15:26:00,
2013-02-06 08:31:00,30.7,25.3,29.70,WSW,248,4.1,4.6,80,0.00,CLR,,0.00,WeatherDisplay:10.37,2013-02-06 15:31:00,
2013-02-06 08:36:00,31.6,25.8,29.70,West,270,3.4,4.6,79,0.00,CLR,,0.00,WeatherDisplay:10.37,2013-02-06 15:36:00,
2013-02-06 08:41:00,32.5,26.1,29.70,SW,225,4.1,4.6,77,0.00,CLR,,0.00,WeatherDisplay:10.37,2013-02-06 15:41:00,
2013-02-06 08:47:00,33.6,26.8,29.70,WSW,248,3.9,5.8,76,0.00,CLR,,0.00,WeatherDisplay:10.37,2013-02-06 15:47:00,
2013-02-06 08:52:00,34.3,26.9,29.70,SW,225,5.6,6.9,74,0.00,CLR,,0.00,WeatherDisplay:10.37,2013-02-06 15:52:00,
2013-02-06 08:57:00,34.7,27.3,29.70,WSW,248,8.5,9.4,74,0.00,CLR,,0.00,WeatherDisplay:10.37,2013-02-06 15:57:00,
2013-02-06 09:02:00,35.1,27.6,29.70,SW,225,7.3,8.1,74,0.00,CLR,,0.00,WeatherDisplay:10.37,2013-02-06 16:02:00,
2013-02-06 09:07:00,35.4,27.6,29.71,NW,315,4.2,5.8,73,0.00,CLR,,0.00,WeatherDisplay:10.37,2013-02-06 16:07:00,
2013-02-06 09:12:00,35.8,27.7,29.71,SW,225,6.0,6.3,72,0.00,CLR,,0.00,WeatherDisplay:10.37,2013-02-06 16:12:00,
2013-02-06 09:17:00,36.3,27.8,29.71,SW,225,6.5,7.3,71,0.00,CLR,,0.00,WeatherDisplay:10.37,2013-02-06 16:17:00,
2013-02-06 09:22:00,36.9,28.4,29.71,WSW,248,4.8,6.3,71,0.00,CLR,,0.00,WeatherDisplay:10.37,2013-02-06 16:22:00,
2013-02-06 09:27:00,37.0,28.1,29.71,SW,225,5.3,5.3,70,0.00,CLR,,0.00,WeatherDisplay:10.37,2013-02-06 16:27:00,
2013-02-06 09:32:00,37.2,28.0,29.71,SW,225,5.7,6.8,69,0.00,CLR,,0.00,WeatherDisplay:10.37,2013-02-06 16:32:00,
2013-02-06 09:37:00,37.4,28.5,29.71,SSW,202,6.9,9.4,70,0.00,CLR,,0.00,WeatherDisplay:10.37,2013-02-06 16:37:00,
2013-02-06 09:42:00,37.9,28.6,29.72,WSW,248,8.7,10.4,69,0.00,CLR,,0.00,WeatherDisplay:10.37,2013-02-06 16:42:00,
2013-02-06 09:47:00,37.8,28.5,29.72,SW,225,9.6,10.4,69,0.00,CLR,,0.00,WeatherDisplay:10.37,2013-02-06 16:47:00,
2013-02-06 09:52:00,37.6,28.7,29.72,SW,225,10.3,11.5,70,0.00,CLR,,0.00,WeatherDisplay:10.37,2013-02-06 16:52:00,
2013-02-06 09:57:00,38.1,28.8,29.72,WSW,248,6.5,9.2,69,0.00,CLR,,0.00,WeatherDisplay:10.37,2013-02-06 16:57:00,
2013-02-06 10:02:00,38.3,29.0,29.72,WSW,248,5.3,5.8,69,0.00,CLR,,0.00,WeatherDisplay:10.37,2013-02-06 17:02:00,
2013-02-06 10:07:00,38.7,29.4,29.72,WSW,248,7.3,10.4,69,0.00,CLR,,0.00,WeatherDisplay:10.37,2013-02-06 17:07:00,
2013-02-06 10:12:00,39.4,29.3,29.72,WSW,248,6.5,7.3,67,0.00,CLR,,0.00,WeatherDisplay:10.37,2013-02-06 17:12:00,
2013-02-06 10:17:00,39.9,29.5,29.73,West,270,6.6,6.9,66,0.00,CLR,,0.00,WeatherDisplay:10.37,2013-02-06 17:17:00,
2013-02-06 10:22:00,40.1,29.6,29.73,SW,225,5.6,5.8,66,0.00,CLR,,0.00,WeatherDisplay:10.37,2013-02-06 17:22:00,
2013-02-06 10:27:00,39.7,29.6,29.72,SW,225,9.6,10.4,67,0.00,CLR,,0.00,WeatherDisplay:10.37,2013-02-06 17:27:00,
2013-02-06 10:32:00,40.1,29.6,29.72,NW,315,6.7,8.1,66,0.00,CLR,,0.00,WeatherDisplay:10.37,2013-02-06 17:32:00,
2013-02-06 10:37:00,40.5,30.0,29.72,SSW,202,8.0,8.1,66,0.00,CLR,,0.00,WeatherDisplay:10.37,2013-02-06 17:37:00,
2013-02-06 10:42:00,40.8,29.9,29.72,SW,225,8.9,10.4,65,0.00,CLR,,0.00,WeatherDisplay:10.37,2013-02-06 17:42:00,
2013-02-06 10:47:00,41.0,29.7,29.72,WNW,292,8.1,10.4,64,0.00,CLR,,0.00,WeatherDisplay:10.37,2013-02-06 17:47:00,
2013-02-06 10:52:00,40.8,29.9,29.73,West,270,7.9,10.4,65,0.00,CLR,,0.00,WeatherDisplay:10.37,2013-02-06 17:52:00,
2013-02-06 10:57:00,40.6,29.7,29.73,WSW,248,9.5,11.5,65,0.00,CLR,,0.00,WeatherDisplay:10.37,2013-02-06 17:57:00,
2013-02-06 11:02:00,40.8,29.9,29.73,West,270,10.7,14.0,65,0.00,CLR,,0.00,WeatherDisplay:10.37,2013-02-06 18:02:00,
2013-02-06 11:07:00,40.8,29.6,29.73,WSW,248,10.2,12.7,64,0.00,CLR,,0.00,WeatherDisplay:10.37,2013-02-06 18:07:00,
2013-02-06 11:12:00,40.8,29.6,29.73,West,270,8.6,10.9,64,0.00,CLR,,0.00,WeatherDisplay:10.37,2013-02-06 18:12:00,
2013-02-06 11:17:00,41.0,29.7,29.73,WSW,248,9.0,13.5,64,0.00,CLR,,0.00,WeatherDisplay:10.37,2013-02-06 18:17:00,
2013-02-06 11:22:00,40.8,29.6,29.73,SW,225,6.9,8.1,64,0.00,CLR,,0.00,WeatherDisplay:10.37,2013-02-06 18:22:00,
2013-02-06 11:27:00,41.0,29.7,29.73,WSW,248,9.3,11.5,64,0.00,CLR,,0.00,WeatherDisplay:10.37,2013-02-06 18:27:00,
2013-02-06 11:32:00,41.2,29.9,29.73,SW,225,7.3,8.1,64,0.00,CLR,,0.00,WeatherDisplay:10.37,2013-02-06 18:32:00,
2013-02-06 11:37:00,41.0,29.7,29.74,WSW,248,7.0,10.4,64,0.00,CLR,,0.00,WeatherDisplay:10.37,2013-02-06 18:37:00,
2013-02-06 11:42:00,40.8,29.6,29.74,West,270,7.3,9.2,64,0.00,CLR,,0.00,WeatherDisplay:10.37,2013-02-06 18:42:00,
2013-02-06 11:47:00,41.2,29.9,29.74,West,270,7.0,10.9,64,0.00,CLR,,0.00,WeatherDisplay:10.37,2013-02-06 18:47:00,
2013-02-06 11:52:00,41.2,29.9,29.74,West,270,5.6,6.9,64,0.00,CLR,,0.00,WeatherDisplay:10.37,2013-02-06 18:52:00,
2013-02-06 11:57:00,41.4,30.5,29.74,WSW,248,7.5,10.4,65,0.00,CLR,,0.00,WeatherDisplay:10.37,2013-02-06 18:57:00,
2013-02-06 12:02:00,41.4,30.9,29.73,WSW,248,5.5,5.8,66,0.00,CLR,,0.00,WeatherDisplay:10.37,2013-02-06 19:02:00,
2013-02-06 12:07:00,41.4,30.5,29.73,West,270,7.5,9.2,65,0.00,CLR,,0.00,WeatherDisplay:10.37,2013-02-06 19:07:00,
2013-02-06 12:12:00,41.4,30.1,29.73,WNW,292,7.1,10.9,64,0.00,CLR,,0.00,WeatherDisplay:10.37,2013-02-06 19:12:00,
2013-02-06 12:17:00,41.2,29.9,29.74,WNW,292,8.1,9.2,64,0.00,CLR,,0.00,WeatherDisplay:10.37,2013-02-06 19:17:00,
2013-02-06 12:22:00,41.5,30.6,29.74,West,270,4.0,5.8,65,0.00,CLR,,0.00,WeatherDisplay:10.37,2013-02-06 19:22:00,
2013-02-06 12:27:00,41.2,29.9,29.75,West,270,6.8,9.2,64,0.00,CLR,,0.00,WeatherDisplay:10.37,2013-02-06 19:27:00,
2013-02-06 12:32:00,41.2,30.3,29.75,West,270,7.3,9.9,65,0.00,CLR,,0.00,WeatherDisplay:10.37,2013-02-06 19:32:00,
2013-02-06 12:37:00,41.2,30.3,29.75,West,270,5.7,6.8,65,0.00,CLR,,0.00,WeatherDisplay:10.37,2013-02-06 19:37:00,
2013-02-06 12:42:00,41.2,30.3,29.75,WSW,248,8.4,10.4,65,0.00,CLR,,0.00,WeatherDisplay:10.37,2013-02-06 19:42:00,
2013-02-06 12:47:00,41.4,30.5,29.75,SW,225,9.4,10.4,65,0.00,CLR,,0.00,WeatherDisplay:10.37,2013-02-06 19:47:00,
2013-02-06 12:52:00,41.0,30.5,29.75,WNW,292,6.7,10.4,66,0.00,CLR,,0.00,WeatherDisplay:10.37,2013-02-06 19:52:00,
2013-02-06 12:58:00,41.2,30.3,29.75,West,270,7.6,8.1,65,0.00,CLR,,0.00,WeatherDisplay:10.37,2013-02-06 19:58:00,
2013-02-06 13:02:00,41.4,30.9,29.75,WSW,248,5.0,9.2,66,0.00,CLR,,0.00,WeatherDisplay:10.37,2013-02-06 20:02:00,
2013-02-06 13:08:00,41.0,30.1,29.75,SW,225,8.9,10.4,65,0.00,CLR,,0.00,WeatherDisplay:10.37,2013-02-06 20:08:00,
2013-02-06 13:13:00,40.6,29.7,29.75,West,270,10.4,12.4,65,0.00,CLR,,0.00,WeatherDisplay:10.37,2013-02-06 20:13:00,
2013-02-06 13:18:00,40.5,30.0,29.76,WSW,248,9.7,13.5,66,0.00,CLR,,0.00,WeatherDisplay:10.37,2013-02-06 20:18:00,
2013-02-06 13:23:00,40.6,30.5,29.76,West,270,6.4,6.9,67,0.00,CLR,,0.00,WeatherDisplay:10.37,2013-02-06 20:23:00,
2013-02-06 13:28:00,40.6,30.1,29.76,SW,225,6.1,10.4,66,0.00,CLR,,0.00,WeatherDisplay:10.37,2013-02-06 20:28:00,
2013-02-06 13:33:00,40.5,30.4,29.76,WSW,248,6.9,8.1,67,0.00,CLR,,0.00,WeatherDisplay:10.37,2013-02-06 20:33:00,
2013-02-06 13:38:00,40.8,30.7,29.76,West,270,5.8,8.1,67,0.00,CLR,,0.00,WeatherDisplay:10.37,2013-02-06 20:38:00,
2013-02-06 13:43:00,40.6,30.5,29.77,West,270,8.0,10.4,67,0.00,CLR,,0.00,WeatherDisplay:10.37,2013-02-06 20:43:00,
2013-02-06 13:48:00,40.5,30.4,29.77,NW,315,8.7,11.9,67,0.00,CLR,,0.00,WeatherDisplay:10.37,2013-02-06 20:48:00,
2013-02-06 13:53:00,40.5,30.4,29.77,NW,315,11.9,11.9,67,0.00,CLR,,0.00,WeatherDisplay:10.37,2013-02-06 20:53:00,
2013-02-06 13:58:00,40.3,30.2,29.77,WNW,292,10.3,11.5,67,0.00,CLR,,0.00,WeatherDisplay:10.37,2013-02-06 20:58:00,
2013-02-06 14:03:00,40.1,30.0,29.77,West,270,10.8,10.8,67,0.00,CLR,,0.00,WeatherDisplay:10.37,2013-02-06 21:03:00,
2013-02-06 14:08:00,39.9,30.2,29.77,West,270,8.4,10.4,68,0.00,CLR,,0.00,WeatherDisplay:10.37,2013-02-06 21:08:00,
2013-02-06 14:13:00,39.7,30.0,29.77,WNW,292,10.7,10.7,68,0.00,CLR,,0.00,WeatherDisplay:10.37,2013-02-06 21:13:00,
2013-02-06 14:18:00,39.7,30.4,29.77,West,270,9.1,12.7,69,0.00,CLR,,0.00,WeatherDisplay:10.37,2013-02-06 21:18:00,
2013-02-06 14:23:00,39.9,30.5,29.77,West,270,7.0,9.9,69,0.00,CLR,,0.00,WeatherDisplay:10.37,2013-02-06 21:23:00,
2013-02-06 14:28:00,39.7,30.4,29.78,WNW,292,11.1,11.5,69,0.00,CLR,,0.00,WeatherDisplay:10.37,2013-02-06 21:28:00,
2013-02-06 14:33:00,39.7,30.4,29.78,West,270,11.2,14.5,69,0.00,CLR,,0.00,WeatherDisplay:10.37,2013-02-06 21:33:00,
2013-02-06 14:38:00,39.6,30.3,29.78,West,270,9.8,11.5,69,0.00,CLR,,0.00,WeatherDisplay:10.37,2013-02-06 21:38:00,
2013-02-06 14:43:00,39.4,30.1,29.78,WNW,292,7.8,9.2,69,0.00,CLR,,0.00,WeatherDisplay:10.37,2013-02-06 21:43:00,
2013-02-06 14:48:00,39.4,30.4,29.78,West,270,8.7,11.9,70,0.00,CLR,,0.00,WeatherDisplay:10.37,2013-02-06 21:48:00,
2013-02-06 14:53:00,39.6,30.6,29.79,NNW,338,6.4,6.9,70,0.00,CLR,,0.00,WeatherDisplay:10.37,2013-02-06 21:53:00,
2013-02-06 14:58:00,39.4,30.4,29.79,NNE,22,5.3,5.8,70,0.00,CLR,,0.00,WeatherDisplay:10.37,2013-02-06 21:58:00,
2013-02-06 15:03:00,39.4,30.4,29.80,NNE,22,5.3,5.8,70,0.00,CLR,,0.00,WeatherDisplay:10.37,2013-02-06 22:03:00,
2013-02-06 15:08:00,39.2,30.2,29.80,West,270,10.2,11.5,70,0.00,CLR,,0.00,WeatherDisplay:10.37,2013-02-06 22:08:00,
2013-02-06 15:13:00,39.0,30.0,29.80,WSW,248,10.0,11.5,70,0.00,CLR,,0.00,WeatherDisplay:10.37,2013-02-06 22:13:00,
2013-02-06 15:18:00,38.8,30.2,29.80,West,270,7.5,9.2,71,0.00,CLR,,0.00,WeatherDisplay:10.37,2013-02-06 22:18:00,
2013-02-06 15:23:00,39.4,30.4,29.80,West,270,7.5,8.8,70,0.00,CLR,,0.00,WeatherDisplay:10.37,2013-02-06 22:23:00,
2013-02-06 15:28:00,39.0,30.0,29.81,WNW,292,9.5,10.4,70,0.00,CLR,,0.00,WeatherDisplay:10.37,2013-02-06 22:28:00,
2013-02-06 15:33:00,38.8,30.2,29.81,West,270,7.5,9.2,71,0.00,CLR,,0.00,WeatherDisplay:10.37,2013-02-06 22:33:00,
2013-02-06 15:38:00,38.7,30.1,29.81,West,270,6.8,6.9,71,0.00,CLR,,0.00,WeatherDisplay:10.37,2013-02-06 22:38:00,
2013-02-06 15:43:00,38.5,29.9,29.81,WNW,292,7.7,10.4,71,0.00,CLR,,0.00,WeatherDisplay:10.37,2013-02-06 22:43:00,
2013-02-06 15:48:00,38.3,29.7,29.81,West,270,4.3,8.1,71,0.00,CLR,,0.00,WeatherDisplay:10.37,2013-02-06 22:48:00,
2013-02-06 15:53:00,38.5,29.9,29.82,West,270,5.5,6.9,71,0.00,CLR,,0.00,WeatherDisplay:10.37,2013-02-06 22:53:00,
2013-02-06 15:58:00,38.3,30.1,29.82,West,270,3.6,4.6,72,0.00,CLR,,0.00,WeatherDisplay:10.37,2013-02-06 22:58:00,
2013-02-06 16:03:00,38.1,29.9,29.82,West,270,6.6,9.2,72,0.00,CLR,,0.00,WeatherDisplay:10.37,2013-02-06 23:03:00,
2013-02-06 16:08:00,37.9,29.7,29.82,WSW,248,7.3,10.4,72,0.00,CLR,,0.00,WeatherDisplay:10.37,2013-02-06 23:08:00,
2013-02-06 16:13:00,37.8,29.9,29.82,South,180,5.7,6.8,73,0.00,CLR,,0.00,WeatherDisplay:10.37,2013-02-06 23:13:00,
2013-02-06 16:18:00,37.6,29.7,29.82,NNW,338,6.1,6.9,73,0.00,CLR,,0.00,WeatherDisplay:10.37,2013-02-06 23:18:00,
2013-02-06 16:23:00,37.2,29.7,29.82,West,270,2.6,4.6,74,0.00,CLR,,0.00,WeatherDisplay:10.37,2013-02-06 23:23:00,
2013-02-06 16:28:00,37.0,29.5,29.83,North,360,2.1,3.5,74,0.00,CLR,,0.00,WeatherDisplay:10.37,2013-02-06 23:28:00,
2013-02-06 16:33:00,37.0,29.5,29.83,NE,45,2.5,3.5,74,0.00,CLR,,0.00,WeatherDisplay:10.37,2013-02-06 23:33:00,
2013-02-06 16:38:00,37.0,29.5,29.84,NNE,22,3.0,4.6,74,0.00,CLR,,0.00,WeatherDisplay:10.37,2013-02-06 23:38:00,
2013-02-06 16:43:00,36.9,29.7,29.84,NE,45,1.3,2.3,75,0.00,CLR,,0.00,WeatherDisplay:10.37,2013-02-06 23:43:00,
2013-02-06 16:48:00,37.2,29.7,29.84,West,270,1.8,2.3,74,0.00,CLR,,0.00,WeatherDisplay:10.37,2013-02-06 23:48:00,
2013-02-06 16:53:00,37.0,29.5,29.85,NNE,22,1.5,3.5,74,0.00,CLR,,0.00,WeatherDisplay:10.37,2013-02-06 23:53:00,
2013-02-06 16:58:00,36.3,29.1,29.85,NNW,338,2.5,3.5,75,0.00,CLR,,0.00,WeatherDisplay:10.37,2013-02-06 23:58:00,
2013-02-06 17:03:00,36.0,29.2,29.85,WNW,292,2.2,2.3,76,0.00,CLR,,0.00,WeatherDisplay:10.37,2013-02-07 00:03:00,
2013-02-06 17:08:00,35.4,28.9,29.85,West,270,2.3,4.7,77,0.00,CLR,,0.00,WeatherDisplay:10.37,2013-02-07 00:08:00,
2013-02-06 17:13:00,35.1,28.6,29.85,North,360,4.7,4.7,77,0.00,CLR,,0.00,WeatherDisplay:10.37,2013-02-07 00:13:00,
2013-02-06 17:18:00,34.7,28.5,29.86,NNW,338,3.3,4.2,78,0.00,CLR,,0.00,WeatherDisplay:10.37,2013-02-07 00:18:00,
2013-02-06 17:23:00,34.7,28.5,29.86,WNW,292,3.3,3.7,78,0.00,CLR,,0.00,WeatherDisplay:10.37,2013-02-07 00:23:00,
2013-02-06 17:28:00,34.3,28.5,29.86,NNE,22,2.3,2.3,79,0.00,CLR,,0.00,WeatherDisplay:10.37,2013-02-07 00:28:00,
2013-02-06 17:33:00,34.2,28.7,29.86,NNE,22,1.2,1.7,80,0.00,CLR,,0.00,WeatherDisplay:10.37,2013-02-07 00:33:00,
2013-02-06 17:38:00,33.8,28.6,29.86,NNE,22,1.7,2.3,81,0.00,CLR,,0.00,WeatherDisplay:10.37,2013-02-07 00:38:00,
2013-02-06 17:43:00,33.4,28.5,29.86,NNE,22,2.7,3.5,82,0.00,CLR,,0.00,WeatherDisplay:10.37,2013-02-07 00:43:00,
2013-02-06 17:48:00,33.1,28.2,29.86,North,360,1.6,1.6,82,0.00,CLR,,0.00,WeatherDisplay:10.37,2013-02-07 00:48:00,
2013-02-06 17:53:00,32.9,28.3,29.87,WNW,292,1.1,2.3,83,0.00,CLR,,0.00,WeatherDisplay:10.37,2013-02-07 00:53:00,
2013-02-06 17:58:00,32.5,28.2,29.87,NNE,22,1.6,2.3,84,0.00,CLR,,0.00,WeatherDisplay:10.37,2013-02-07 00:58:00,
2013-02-06 18:03:00,32.4,28.1,29.87,NNE,22,3.4,3.7,84,0.00,CLR,,0.00,WeatherDisplay:10.37,2013-02-07 01:03:00,
2013-02-06 18:08:00,32.2,27.9,29.87,NNW,338,1.7,2.3,84,0.00,CLR,,0.00,WeatherDisplay:10.37,2013-02-07 01:08:00,
2013-02-06 18:13:00,32.0,28.0,29.87,NE,45,2.2,2.7,85,0.00,CLR,,0.00,WeatherDisplay:10.37,2013-02-07 01:13:00,
2013-02-06 18:18:00,31.8,28.1,29.88,NE,45,2.5,3.5,86,0.00,CLR,,0.00,WeatherDisplay:10.37,2013-02-07 01:18:00,
2013-02-06 18:23:00,31.8,28.1,29.88,NNE,22,2.7,3.5,86,0.00,CLR,,0.00,WeatherDisplay:10.37,2013-02-07 01:23:00,
2013-02-06 18:28:00,31.8,28.1,29.88,NNE,22,2.5,3.5,86,0.00,CLR,,0.00,WeatherDisplay:10.37,2013-02-07 01:28:00,
2013-02-06 18:33:00,31.5,27.8,29.88,NE,45,2.4,2.7,86,0.00,CLR,,0.00,WeatherDisplay:10.37,2013-02-07 01:33:00,
2013-02-06 18:38:00,30.9,27.2,29.89,ESE,112,3.7,5.8,86,0.00,CLR,,0.00,WeatherDisplay:10.37,2013-02-07 01:38:00,
2013-02-06 18:43:00,29.5,26.1,29.89,East,90,4.8,5.8,87,0.00,CLR,,0.00,WeatherDisplay:10.37,2013-02-07 01:43:00,
2013-02-06 18:48:00,28.4,25.6,29.89,East,90,3.6,4.6,89,0.00,CLR,,0.00,WeatherDisplay:10.37,2013-02-07 01:48:00,
2013-02-06 18:53:00,27.9,25.1,29.90,NE,45,3.8,4.6,89,0.00,CLR,,0.00,WeatherDisplay:10.37,2013-02-07 01:53:00,
2013-02-06 18:58:00,27.5,25.2,29.90,ENE,68,2.5,3.5,91,0.00,CLR,,0.00,WeatherDisplay:10.37,2013-02-07 01:58:00,
2013-02-06 19:03:00,27.1,25.1,29.90,SE,135,3.2,3.5,92,0.00,CLR,,0.00,WeatherDisplay:10.37,2013-02-07 02:03:00,
2013-02-06 19:08:00,26.8,24.8,29.90,ESE,112,3.9,4.6,92,0.00,CLR,,0.00,WeatherDisplay:10.37,2013-02-07 02:08:00,
2013-02-06 19:13:00,26.8,25.0,29.90,SSE,158,3.7,4.7,93,0.00,CLR,,0.00,WeatherDisplay:10.37,2013-02-07 02:13:00,
2013-02-06 19:18:00,26.6,25.4,29.91,East,90,4.7,5.8,95,0.00,CLR,,0.00,WeatherDisplay:10.37,2013-02-07 02:18:00,
2013-02-06 19:23:00,26.6,25.4,29.91,East,90,4.1,5.8,95,0.00,CLR,,0.00,WeatherDisplay:10.37,2013-02-07 02:23:00,
2013-02-06 19:28:00,26.6,25.4,29.91,ESE,112,3.6,5.8,95,0.00,CLR,,0.00,WeatherDisplay:10.37,2013-02-07 02:28:00,
2013-02-06 19:33:00,26.6,25.4,29.91,ESE,112,3.1,4.6,95,0.00,CLR,,0.00,WeatherDisplay:10.37,2013-02-07 02:33:00,
2013-02-06 19:38:00,26.6,25.6,29.91,East,90,3.6,3.6,96,0.00,CLR,,0.00,WeatherDisplay:10.37,2013-02-07 02:38:00,
2013-02-06 19:43:00,26.6,25.6,29.91,East,90,4.0,4.6,96,0.00,CLR,,0.00,WeatherDisplay:10.37,2013-02-07 02:43:00,
2013-02-06 19:48:00,26.6,25.6,29.91,ENE,68,2.9,3.7,96,0.00,CLR,,0.00,WeatherDisplay:10.37,2013-02-07 02:48:00,
2013-02-06 19:53:00,26.6,25.6,29.91,ESE,112,4.1,4.7,96,0.00,CLR,,0.00,WeatherDisplay:10.37,2013-02-07 02:53:00,
2013-02-06 19:58:00,26.6,25.6,29.91,East,90,2.8,4.6,96,0.00,CLR,,0.00,WeatherDisplay:10.37,2013-02-07 02:58:00,
2013-02-06 20:03:00,26.6,25.6,29.92,ESE,112,2.7,2.7,96,0.00,CLR,,0.00,WeatherDisplay:10.37,2013-02-07 03:03:00,
2013-02-06 20:08:00,26.6,25.6,29.92,ESE,112,4.0,4.6,96,0.00,CLR,,0.00,WeatherDisplay:10.37,2013-02-07 03:08:00,
2013-02-06 20:13:00,26.6,25.6,29.92,East,90,3.5,4.6,96,0.00,CLR,,0.00,WeatherDisplay:10.37,2013-02-07 03:13:00,
2013-02-06 20:18:00,26.8,25.8,29.92,ENE,68,2.0,2.3,96,0.00,CLR,,0.00,WeatherDisplay:10.37,2013-02-07 03:18:00,
2013-02-06 20:23:00,26.8,25.8,29.92,SE,135,3.3,3.5,96,0.00,CLR,,0.00,WeatherDisplay:10.37,2013-02-07 03:23:00,
2013-02-06 20:28:00,26.8,25.8,29.93,East,90,3.3,4.6,96,0.00,CLR,,0.00,WeatherDisplay:10.37,2013-02-07 03:28:00,
2013-02-06 20:33:00,27.0,26.0,29.93,ENE,68,3.0,3.5,96,0.00,CLR,,0.00,WeatherDisplay:10.37,2013-02-07 03:33:00,
2013-02-06 20:38:00,27.0,26.0,29.93,SSE,158,3.3,4.2,96,0.00,CLR,,0.00,WeatherDisplay:10.37,2013-02-07 03:38:00,
2013-02-06 20:43:00,27.0,26.0,29.93,SE,135,4.0,4.6,96,0.00,CLR,,0.00,WeatherDisplay:10.37,2013-02-07 03:43:00,
2013-02-06 20:48:00,27.0,26.0,29.93,ENE,68,2.4,3.2,96,0.00,CLR,,0.00,WeatherDisplay:10.37,2013-02-07 03:48:00,
2013-02-06 20:54:00,27.0,26.0,29.93,ESE,112,4.1,4.6,96,0.00,CLR,,0.00,WeatherDisplay:10.37,2013-02-07 03:54:00,
2013-02-06 20:59:00,27.0,26.0,29.93,NE,45,2.8,4.6,96,0.00,CLR,,0.00,WeatherDisplay:10.37,2013-02-07 03:59:00,
2013-02-06 21:04:00,27.0,26.0,29.94,ESE,112,3.9,4.6,96,0.00,CLR,,0.00,WeatherDisplay:10.37,2013-02-07 04:04:00,
2013-02-06 21:09:00,27.0,26.0,29.94,SSE,158,3.9,5.3,96,0.00,CLR,,0.00,WeatherDisplay:10.37,2013-02-07 04:09:00,
2013-02-06 21:14:00,26.8,25.8,29.94,ESE,112,3.7,3.7,96,0.00,CLR,,0.00,WeatherDisplay:10.37,2013-02-07 04:14:00,
2013-02-06 21:19:00,26.8,25.8,29.94,ESE,112,5.1,5.8,96,0.00,CLR,,0.00,WeatherDisplay:10.37,2013-02-07 04:19:00,
2013-02-06 21:24:00,26.8,25.8,29.94,ESE,112,4.3,5.3,96,0.00,CLR,,0.00,WeatherDisplay:10.37,2013-02-07 04:24:00,
2013-02-06 21:29:00,26.8,25.8,29.95,SE,135,4.4,5.8,96,0.00,CLR,,0.00,WeatherDisplay:10.37,2013-02-07 04:29:00,
2013-02-06 21:34:00,26.8,25.8,29.95,ESE,112,4.9,5.8,96,0.00,CLR,,0.00,WeatherDisplay:10.37,2013-02-07 04:34:00,
2013-02-06 21:39:00,26.8,25.8,29.95,East,90,4.0,4.6,96,0.00,CLR,,0.00,WeatherDisplay:10.37,2013-02-07 04:39:00,
2013-02-06 21:44:00,26.8,25.8,29.95,SE,135,4.5,4.6,96,0.00,CLR,,0.00,WeatherDisplay:10.37,2013-02-07 04:44:00,
2013-02-06 21:49:00,26.8,25.8,29.95,ESE,112,4.2,4.7,96,0.00,CLR,,0.00,WeatherDisplay:10.37,2013-02-07 04:49:00,
2013-02-06 21:54:00,26.6,25.6,29.95,ESE,112,4.4,4.7,96,0.00,CLR,,0.00,WeatherDisplay:10.37,2013-02-07 04:54:00,
2013-02-06 21:59:00,26.6,25.6,29.95,East,90,4.7,5.8,96,0.00,CLR,,0.00,WeatherDisplay:10.37,2013-02-07 04:59:00,
2013-02-06 22:00:00,26.6,25.6,29.95,ESE,112,4.5,5.8,96,0.00,CLR,,0.00,WeatherDisplay:10.37,2013-02-07 05:00:00,
2013-02-06 22:01:00,26.6,25.6,29.95,SE,135,4.0,5.8,96,0.00,CLR,,0.00,WeatherDisplay:10.37,2013-02-07 05:01:00,
2013-02-06 22:02:00,26.6,25.6,29.95,SE,135,3.6,4.2,96,0.00,CLR,,0.00,WeatherDisplay:10.37,2013-02-07 05:02:00,
2013-02-06 22:07:00,26.6,25.6,29.95,ENE,68,4.4,5.8,96,0.00,CLR,,0.00,WeatherDisplay:10.37,2013-02-07 05:07:00,
2013-02-06 22:12:00,26.6,25.6,29.95,ESE,112,2.7,3.5,96,0.00,CLR,,0.00,WeatherDisplay:10.37,2013-02-07 05:12:00,
2013-02-06 22:17:00,26.6,25.6,29.95,ENE,68,3.9,4.6,96,0.00,CLR,,0.00,WeatherDisplay:10.37,2013-02-07 05:17:00,
2013-02-06 22:22:00,26.6,25.6,29.95,East,90,2.6,3.5,96,0.00,CLR,,0.00,WeatherDisplay:10.37,2013-02-07 05:22:00,
2013-02-06 22:27:00,26.6,25.6,29.95,SE,135,3.2,3.5,96,0.00,CLR,,0.00,WeatherDisplay:10.37,2013-02-07 05:27:00,
2013-02-06 22:32:00,26.6,25.6,29.95,ESE,112,3.7,4.6,96,0.00,CLR,,0.00,WeatherDisplay:10.37,2013-02-07 05:32:00,
2013-02-06 22:37:00,26.6,25.6,29.95,ESE,112,2.9,3.7,96,0.00,CLR,,0.00,WeatherDisplay:10.37,2013-02-07 05:37:00,
2013-02-06 22:42:00,26.6,25.6,29.96,ESE,112,3.3,3.5,96,0.00,CLR,,0.00,WeatherDisplay:10.37,2013-02-07 05:42:00,
2013-02-06 22:47:00,26.8,25.8,29.96,ESE,112,6.3,6.3,96,0.00,CLR,,0.00,WeatherDisplay:10.37,2013-02-07 05:47:00,
2013-02-06 22:52:00,26.8,25.8,29.96,ESE,112,5.3,5.8,96,0.00,CLR,,0.00,WeatherDisplay:10.37,2013-02-07 05:52:00,
2013-02-06 22:57:00,26.8,25.8,29.96,SE,135,3.9,4.6,96,0.00,CLR,,0.00,WeatherDisplay:10.37,2013-02-07 05:57:00,
2013-02-06 23:02:00,26.8,25.8,29.97,ESE,112,2.4,3.5,96,0.00,CLR,,0.00,WeatherDisplay:10.37,2013-02-07 06:02:00,
2013-02-06 23:07:00,26.6,25.6,29.97,ESE,112,4.6,4.7,96,0.00,CLR,,0.00,WeatherDisplay:10.37,2013-02-07 06:07:00,
2013-02-06 23:12:00,26.6,25.6,29.97,ESE,112,3.1,3.5,96,0.00,CLR,,0.00,WeatherDisplay:10.37,2013-02-07 06:12:00,
2013-02-06 23:17:00,26.6,25.6,29.97,ESE,112,3.8,4.6,96,0.00,CLR,,0.00,WeatherDisplay:10.37,2013-02-07 06:17:00,
2013-02-06 23:22:00,26.6,25.6,29.97,ESE,112,3.0,4.6,96,0.00,CLR,,0.00,WeatherDisplay:10.37,2013-02-07 06:22:00,
2013-02-06 23:27:00,26.6,25.6,29.97,ESE,112,4.8,5.8,96,0.00,CLR,,0.00,WeatherDisplay:10.37,2013-02-07 06:27:00,
2013-02-06 23:32:00,26.6,25.6,29.97,ESE,112,2.9,4.6,96,0.00,CLR,,0.00,WeatherDisplay:10.37,2013-02-07 06:32:00,
2013-02-06 23:37:00,26.6,25.6,29.97,ESE,112,2.9,4.2,96,0.00,CLR,,0.00,WeatherDisplay:10.37,2013-02-07 06:37:00,
2013-02-06 23:42:00,26.6,25.6,29.98,ESE,112,3.6,4.6,96,0.00,CLR,,0.00,WeatherDisplay:10.37,2013-02-07 06:42:00,
2013-02-06 23:47:00,26.6,25.6,29.98,ESE,112,4.5,4.5,96,0.00,CLR,,0.00,WeatherDisplay:10.37,2013-02-07 06:47:00,
2013-02-06 23:52:00,26.6,25.9,29.98,SE,135,3.8,4.6,97,0.00,CLR,,0.00,WeatherDisplay:10.37,2013-02-07 06:52:00,
2013-02-06 23:57:00,26.6,25.9,29.98,ESE,112,5.6,6.3,97,0.00,CLR,,0.00,WeatherDisplay:10.37,2013-02-07 06:57:00,